createdAt,value
2023-11-19T00:00:15.669Z,8.50
2023-11-19T00:02:43.888Z,8.50
2023-11-19T00:05:15.610Z,8.50
2023-11-19T00:07:43.224Z,8.60
2023-11-19T00:10:15.795Z,8.60
2023-11-19T00:12:48.184Z,8.60
2023-11-19T00:15:16.603Z,8.60
2023-11-19T00:17:46.325Z,8.60
2023-11-19T00:20:18.479Z,8.60
2023-11-19T00:22:49.508Z,8.70
2023-11-19T00:25:17.459Z,8.60
2023-11-19T00:27:47.289Z,8.70
2023-11-19T00:30:16.083Z,8.70
2023-11-19T00:32:43.570Z,8.70
2023-11-19T00:35:16.043Z,8.70
2023-11-19T00:37:50.779Z,8.70
2023-11-19T00:40:20.037Z,8.70
2023-11-19T00:42:47.320Z,8.70
2023-11-19T00:45:14.786Z,8.80
2023-11-19T00:47:42.618Z,8.80
2023-11-19T00:50:12.897Z,8.80
2023-11-19T00:52:40.402Z,8.80
2023-11-19T00:55:08.926Z,8.90
2023-11-19T00:57:37.162Z,8.90
2023-11-19T01:00:10.854Z,8.90
2023-11-19T01:02:38.263Z,8.90
2023-11-19T01:05:05.955Z,9.00
2023-11-19T01:07:33.227Z,9.00
2023-11-19T01:10:01.209Z,9.00
2023-11-19T01:12:28.339Z,9.10
2023-11-19T01:14:56.200Z,9.10
2023-11-19T01:17:23.311Z,9.20
2023-11-19T01:19:51.685Z,9.20
2023-11-19T01:22:20.357Z,9.30
2023-11-19T01:24:47.690Z,9.40
2023-11-19T01:27:15.464Z,9.40
2023-11-19T01:29:44.176Z,9.40
2023-11-19T01:32:11.422Z,9.40
2023-11-19T01:34:38.662Z,9.40
2023-11-19T01:37:05.831Z,9.40
2023-11-19T01:39:33.049Z,9.50
2023-11-19T01:42:00.223Z,9.50
2023-11-19T01:44:27.682Z,9.50
2023-11-19T01:46:55.118Z,9.50
2023-11-19T01:49:22.605Z,9.50
2023-11-19T01:51:50.452Z,9.50
2023-11-19T01:54:17.876Z,9.50
2023-11-19T01:56:45.466Z,9.60
2023-11-19T01:59:15.154Z,9.50
2023-11-19T02:01:43.359Z,9.60
2023-11-19T02:04:12.948Z,9.60
2023-11-19T02:06:43.259Z,9.60
2023-11-19T02:09:10.998Z,9.70
2023-11-19T02:11:41.394Z,9.70
2023-11-19T02:14:08.796Z,9.70
2023-11-19T02:16:36.140Z,9.70
2023-11-19T02:19:05.031Z,9.80
2023-11-19T02:21:32.200Z,9.80
2023-11-19T02:24:09.191Z,9.80
2023-11-19T02:26:53.674Z,9.90
2023-11-19T02:29:20.886Z,9.90
2023-11-19T02:31:48.394Z,10.00
2023-11-19T02:34:15.662Z,9.90
2023-11-19T02:36:42.961Z,9.90
2023-11-19T02:39:13.254Z,10.00
2023-11-19T02:41:40.943Z,9.90
2023-11-19T02:44:08.688Z,9.90
2023-11-19T02:46:36.478Z,9.90
2023-11-19T02:49:03.750Z,9.90
2023-11-19T02:51:31.660Z,10.00
2023-11-19T02:53:59.594Z,10.00
2023-11-19T02:56:27.425Z,10.00
2023-11-19T02:58:55.475Z,10.00
2023-11-19T03:01:32.207Z,10.10
2023-11-19T03:04:03.312Z,10.00
2023-11-19T03:06:31.178Z,10.00
2023-11-19T03:08:58.601Z,10.00
2023-11-19T03:11:26.011Z,10.00
2023-11-19T03:13:53.178Z,10.00
2023-11-19T03:16:20.579Z,10.00
2023-11-19T03:18:47.870Z,9.90
2023-11-19T03:21:15.097Z,10.00
2023-11-19T03:23:42.273Z,10.10
2023-11-19T03:26:11.592Z,10.10
2023-11-19T03:28:38.699Z,10.10
2023-11-19T03:31:11.317Z,10.10
2023-11-19T03:33:38.956Z,10.20
2023-11-19T03:36:07.140Z,10.20
2023-11-19T03:38:34.469Z,10.30
2023-11-19T03:41:01.655Z,10.30
2023-11-19T03:43:29.118Z,10.20
2023-11-19T03:45:56.391Z,10.20
2023-11-19T03:48:23.983Z,10.20
2023-11-19T03:50:51.107Z,10.20
2023-11-19T03:53:20.058Z,10.20
2023-11-19T03:55:47.270Z,10.30
2023-11-19T03:58:15.148Z,10.30
2023-11-19T04:00:42.303Z,10.40
2023-11-19T04:03:09.480Z,10.50
2023-11-19T04:05:36.574Z,10.50
2023-11-19T04:08:03.767Z,10.60
2023-11-19T04:10:30.962Z,10.50
2023-11-19T04:12:58.091Z,10.60
2023-11-19T04:15:25.470Z,10.60
2023-11-19T04:17:52.681Z,10.70
2023-11-19T04:20:19.931Z,10.60
2023-11-19T04:22:47.258Z,10.60
2023-11-19T04:25:15.375Z,10.70
2023-11-19T04:27:42.501Z,10.70
2023-11-19T04:30:12.578Z,10.70
2023-11-19T04:32:40.057Z,10.80
2023-11-19T04:35:08.348Z,10.80
2023-11-19T04:37:36.111Z,10.80
2023-11-19T04:40:04.284Z,10.80
2023-11-19T04:42:32.098Z,10.90
2023-11-19T04:44:59.252Z,10.90
2023-11-19T04:47:26.410Z,10.90
2023-11-19T04:49:53.503Z,10.90
2023-11-19T04:52:20.651Z,10.90
2023-11-19T04:54:49.588Z,10.90
2023-11-19T04:57:16.830Z,11.00
2023-11-19T04:59:43.914Z,11.00
2023-11-19T05:02:11.329Z,11.00
2023-11-19T05:04:41.620Z,11.00
2023-11-19T05:07:08.872Z,11.10
2023-11-19T05:09:36.301Z,11.10
2023-11-19T05:12:04.026Z,11.10
2023-11-19T05:14:31.183Z,11.00
2023-11-19T05:16:58.344Z,11.00
2023-11-19T05:19:25.594Z,11.00
2023-11-19T05:21:53.806Z,11.00
2023-11-19T05:24:20.946Z,11.00
2023-11-19T05:26:48.458Z,11.00
2023-11-19T05:29:15.750Z,11.00
2023-11-19T05:31:45.188Z,11.00
2023-11-19T05:34:13.074Z,11.10
2023-11-19T05:36:41.039Z,11.10
2023-11-19T05:39:08.270Z,11.00
2023-11-19T05:41:35.362Z,11.00
2023-11-19T05:44:02.891Z,11.00
2023-11-19T05:46:30.319Z,10.90
2023-11-19T05:48:57.621Z,10.90
2023-11-19T05:51:25.989Z,10.90
2023-11-19T05:53:53.226Z,10.80
2023-11-19T05:56:23.140Z,10.80
2023-11-19T05:58:50.774Z,10.80
2023-11-19T06:01:18.656Z,10.70
2023-11-19T06:03:51.136Z,10.70
2023-11-19T06:06:18.956Z,10.70
2023-11-19T06:08:46.285Z,10.70
2023-11-19T06:11:16.402Z,10.70
2023-11-19T06:13:44.519Z,10.60
2023-11-19T06:16:11.915Z,10.60
2023-11-19T06:18:39.214Z,10.60
2023-11-19T06:21:06.775Z,10.50
2023-11-19T06:23:33.994Z,10.60
2023-11-19T06:26:01.140Z,10.50
2023-11-19T06:28:28.859Z,10.60
2023-11-19T06:30:56.100Z,10.60
2023-11-19T06:33:23.602Z,10.60
2023-11-19T06:35:50.812Z,10.60
2023-11-19T06:38:18.015Z,10.70
2023-11-19T06:40:45.334Z,10.70
2023-11-19T06:43:12.555Z,10.80
2023-11-19T06:45:39.933Z,10.80
2023-11-19T06:48:07.442Z,10.80
2023-11-19T06:50:35.138Z,10.80
2023-11-19T06:53:02.403Z,10.80
2023-11-19T06:55:29.662Z,10.90
2023-11-19T06:57:56.832Z,10.90
2023-11-19T07:00:24.019Z,10.80
2023-11-19T07:02:52.549Z,10.80
2023-11-19T07:05:20.367Z,10.80
2023-11-19T07:07:48.467Z,10.70
2023-11-19T07:10:15.701Z,10.70
2023-11-19T07:12:43.537Z,10.80
2023-11-19T07:15:11.150Z,10.80
2023-11-19T07:17:38.500Z,10.70
2023-11-19T07:20:06.452Z,10.70
2023-11-19T07:22:33.707Z,10.70
2023-11-19T07:25:00.885Z,10.70
2023-11-19T07:27:28.843Z,10.70
2023-11-19T07:29:56.072Z,10.60
2023-11-19T07:32:23.350Z,10.70
2023-11-19T07:34:50.650Z,10.70
2023-11-19T07:37:18.350Z,10.70
2023-11-19T07:39:45.516Z,10.70
2023-11-19T07:42:12.804Z,10.60
2023-11-19T07:44:43.383Z,10.60
2023-11-19T07:47:12.633Z,10.70
2023-11-19T07:49:40.549Z,10.70
2023-11-19T07:52:21.675Z,10.70
2023-11-19T07:54:49.357Z,10.80
2023-11-19T07:57:16.736Z,10.80
2023-11-19T07:59:43.974Z,10.80
2023-11-19T08:02:11.378Z,10.70
2023-11-19T08:04:41.376Z,10.70
2023-11-19T08:07:08.640Z,10.70
2023-11-19T08:09:35.933Z,10.70
2023-11-19T08:12:04.136Z,10.70
2023-11-19T08:14:31.551Z,10.70
2023-11-19T08:16:58.686Z,10.70
2023-11-19T08:19:25.822Z,10.70
2023-11-19T08:21:52.983Z,10.70
2023-11-19T08:24:20.361Z,10.70
2023-11-19T08:27:02.764Z,10.70
2023-11-19T08:29:30.552Z,10.80
2023-11-19T08:31:57.739Z,10.80
2023-11-19T08:34:25.005Z,10.90
2023-11-19T08:36:54.656Z,10.80
2023-11-19T08:39:24.587Z,10.80
2023-11-19T08:41:52.213Z,10.90
2023-11-19T08:44:20.978Z,10.90
2023-11-19T08:46:51.367Z,10.90
2023-11-19T08:49:18.694Z,11.00
2023-11-19T08:51:46.704Z,11.10
2023-11-19T08:54:14.305Z,11.20
2023-11-19T08:56:41.532Z,11.20
2023-11-19T08:59:08.673Z,11.30
2023-11-19T09:01:36.117Z,11.30
2023-11-19T09:04:04.592Z,11.30
2023-11-19T09:06:34.651Z,11.40
2023-11-19T09:09:04.134Z,11.40
2023-11-19T09:11:31.555Z,11.40
2023-11-19T09:13:59.313Z,11.40
2023-11-19T09:16:26.967Z,11.40
2023-11-19T09:18:54.439Z,11.40
2023-11-19T09:21:21.606Z,11.50
2023-11-19T09:23:50.595Z,11.50
2023-11-19T09:26:18.045Z,11.60
2023-11-19T09:28:45.668Z,11.60
2023-11-19T09:31:19.955Z,11.60
2023-11-19T09:33:47.276Z,11.60
2023-11-19T09:36:18.253Z,11.70
2023-11-19T09:38:45.835Z,11.80
2023-11-19T09:41:14.806Z,12.00
2023-11-19T09:43:42.937Z,12.00
2023-11-19T09:46:15.444Z,12.00
2023-11-19T09:48:44.980Z,12.10
2023-11-19T09:51:12.747Z,12.10
2023-11-19T09:53:40.909Z,12.00
2023-11-19T09:56:13.539Z,12.00
2023-11-19T09:58:43.034Z,12.00
2023-11-19T10:03:45.543Z,12.30
2023-11-19T10:06:13.514Z,12.40
2023-11-19T10:08:41.375Z,12.50
2023-11-19T10:11:09.012Z,12.50
2023-11-19T10:13:40.234Z,12.50
2023-11-19T10:16:14.223Z,12.50
2023-11-19T10:18:47.385Z,12.40
2023-11-19T10:21:20.234Z,12.40
2023-11-19T10:23:55.327Z,12.50
2023-11-19T10:26:24.352Z,12.40
2023-11-19T10:28:51.838Z,12.40
2023-11-19T10:31:20.379Z,12.40
2023-11-19T10:33:48.327Z,12.50
2023-11-19T10:36:17.294Z,12.50
2023-11-19T10:38:57.146Z,12.40
2023-11-19T10:41:33.832Z,12.50
2023-11-19T10:44:01.405Z,12.50
2023-11-19T10:46:42.831Z,12.50
2023-11-19T10:49:10.615Z,12.60
2023-11-19T10:51:37.921Z,12.60
2023-11-19T10:54:07.144Z,12.60
2023-11-19T10:56:35.623Z,12.50
2023-11-19T10:59:23.064Z,12.50
2023-11-19T11:01:56.359Z,12.50
2023-11-19T11:04:29.173Z,12.50
2023-11-19T11:06:57.696Z,12.50
2023-11-19T11:09:25.098Z,12.40
2023-11-19T11:11:53.984Z,12.40
2023-11-19T11:14:23.726Z,12.40
2023-11-19T11:16:52.678Z,12.40
2023-11-19T11:19:20.500Z,12.30
2023-11-19T11:21:55.343Z,12.20
2023-11-19T11:25:18.254Z,12.10
2023-11-19T11:27:56.283Z,12.10
2023-11-19T11:31:01.558Z,12.00
2023-11-19T11:34:10.116Z,12.10
2023-11-19T11:37:04.229Z,12.00
2023-11-19T11:39:33.094Z,11.90
2023-11-19T11:42:29.051Z,11.90
2023-11-19T11:45:09.824Z,11.70
2023-11-19T11:47:46.758Z,11.60
2023-11-19T11:50:15.932Z,11.50
2023-11-19T11:52:58.349Z,11.50
2023-11-19T11:55:32.128Z,11.60
2023-11-19T11:58:00.039Z,12.00
2023-11-19T12:00:38.867Z,12.10
2023-11-19T12:03:08.172Z,12.10
2023-11-19T12:05:42.309Z,12.10
2023-11-19T12:08:13.048Z,12.10
2023-11-19T12:10:51.442Z,12.10
2023-11-19T12:13:20.319Z,12.00
2023-11-19T12:15:59.439Z,12.30
2023-11-19T12:18:30.872Z,12.90
2023-11-19T12:21:03.422Z,13.20
2023-11-19T12:23:31.442Z,13.30
2023-11-19T12:25:59.806Z,13.50
2023-11-19T12:28:30.176Z,13.60
2023-11-19T12:31:10.897Z,13.60
2023-11-19T12:33:39.383Z,13.30
2023-11-19T12:36:07.305Z,13.50
2023-11-19T12:38:34.492Z,13.30
2023-11-19T12:41:08.918Z,13.10
2023-11-19T12:43:51.439Z,13.00
2023-11-19T12:46:24.252Z,12.90
2023-11-19T12:48:52.943Z,12.80
2023-11-19T12:51:21.264Z,12.70
2023-11-19T12:53:59.561Z,12.70
2023-11-19T12:56:26.829Z,12.60
2023-11-19T12:58:54.100Z,12.50
2023-11-19T13:01:23.249Z,12.40
2023-11-19T13:03:52.487Z,12.30
2023-11-19T13:06:22.402Z,12.20
2023-11-19T13:08:55.141Z,12.20
2023-11-19T13:11:34.172Z,12.10
2023-11-19T13:14:06.307Z,12.10
2023-11-19T13:16:34.333Z,12.00
2023-11-19T13:19:02.028Z,12.00
2023-11-19T13:21:29.572Z,12.00
2023-11-19T13:23:57.251Z,12.00
2023-11-19T13:26:24.637Z,12.00
2023-11-19T13:28:51.832Z,12.10
2023-11-19T13:31:19.315Z,12.00
2023-11-19T13:33:47.222Z,12.00
2023-11-19T13:36:17.223Z,11.90
2023-11-19T13:38:48.516Z,11.90
2023-11-19T13:41:15.850Z,12.10
2023-11-19T13:43:43.154Z,12.30
2023-11-19T13:46:12.088Z,12.30
2023-11-19T13:48:39.700Z,12.40
2023-11-19T13:51:07.452Z,12.40
2023-11-19T13:56:05.360Z,12.30
2023-11-19T13:58:32.728Z,12.40
2023-11-19T14:01:00.225Z,12.40
2023-11-19T14:03:27.588Z,12.30
2023-11-19T14:05:56.549Z,12.30
2023-11-19T14:08:26.090Z,12.40
2023-11-19T14:10:56.740Z,12.40
2023-11-19T14:13:25.507Z,12.30
2023-11-19T14:15:53.386Z,12.20
2023-11-19T14:18:22.683Z,12.20
2023-11-19T14:20:49.855Z,12.10
2023-11-19T14:23:17.228Z,12.10
2023-11-19T14:25:45.201Z,12.10
2023-11-19T14:28:12.390Z,12.10
2023-11-19T14:30:39.893Z,12.00
2023-11-19T14:33:07.215Z,12.00
2023-11-19T14:35:35.328Z,12.00
2023-11-19T14:38:07.675Z,11.90
2023-11-19T14:43:05.301Z,11.90
2023-11-19T14:45:38.996Z,11.80
2023-11-19T14:48:15.254Z,11.90
2023-11-19T14:50:42.475Z,11.90
2023-11-19T14:53:09.599Z,11.90
2023-11-19T14:55:36.785Z,11.80
2023-11-19T14:58:08.894Z,11.80
2023-11-19T15:00:38.319Z,11.80
2023-11-19T15:03:05.731Z,11.80
2023-11-19T15:05:33.309Z,11.80
2023-11-19T15:08:04.631Z,11.80
2023-11-19T15:10:32.078Z,11.80
2023-11-19T15:12:59.396Z,11.80
2023-11-19T15:17:58.257Z,11.80
2023-11-19T15:20:25.494Z,11.80
2023-11-19T15:22:53.024Z,11.80
2023-11-19T15:25:20.223Z,11.70
2023-11-19T15:27:47.377Z,11.60
2023-11-19T15:30:14.666Z,11.60
2023-11-19T15:32:43.010Z,11.60
2023-11-19T15:35:15.042Z,11.50
2023-11-19T15:37:46.296Z,11.50
2023-11-19T15:40:14.520Z,11.40
2023-11-19T15:42:46.977Z,11.40
2023-11-19T15:45:14.191Z,11.40
2023-11-19T15:47:41.464Z,11.40
2023-11-19T15:50:12.970Z,11.30
2023-11-19T15:52:40.910Z,11.30
2023-11-19T15:55:08.274Z,11.30
2023-11-19T15:57:35.509Z,11.20
2023-11-19T16:00:03.135Z,11.10
2023-11-19T16:02:30.486Z,10.90
2023-11-19T16:04:57.749Z,10.90
2023-11-19T16:07:25.284Z,10.80
2023-11-19T16:09:55.172Z,10.70
2023-11-19T16:12:22.319Z,10.60
2023-11-19T16:14:49.528Z,10.60
2023-11-19T16:17:16.768Z,10.60
2023-11-19T16:19:44.412Z,10.60
2023-11-19T16:22:12.285Z,10.60
2023-11-19T16:24:39.831Z,10.60
2023-11-19T16:27:28.901Z,10.60
2023-11-19T16:29:57.797Z,10.60
2023-11-19T16:32:25.374Z,10.70
2023-11-19T16:34:53.944Z,10.70
2023-11-19T16:37:22.328Z,10.70
2023-11-19T16:39:49.700Z,10.70
2023-11-19T16:42:19.238Z,10.70
2023-11-19T16:44:46.768Z,10.70
2023-11-19T16:47:16.751Z,10.70
2023-11-19T16:49:44.044Z,10.80
2023-11-19T16:52:11.536Z,10.70
2023-11-19T16:54:40.412Z,10.70
2023-11-19T16:57:07.556Z,10.80
2023-11-19T16:59:34.936Z,10.70
2023-11-19T17:02:02.540Z,10.80
2023-11-19T17:04:29.809Z,10.70
2023-11-19T17:06:57.052Z,10.80
2023-11-19T17:09:24.975Z,10.70
2023-11-19T17:11:52.293Z,10.70
2023-11-19T17:17:07.660Z,10.70
2023-11-19T17:19:35.065Z,10.70
2023-11-19T17:22:02.440Z,10.70
2023-11-19T17:24:29.809Z,10.70
2023-11-19T17:26:57.112Z,10.70
2023-11-19T17:29:24.277Z,10.70
2023-11-19T17:31:51.463Z,10.60
2023-11-19T17:34:19.724Z,10.60
2023-11-19T17:36:47.208Z,10.70
2023-11-19T17:39:14.693Z,10.70
2023-11-19T17:41:42.049Z,10.70
2023-11-19T17:44:09.226Z,10.70
2023-11-19T17:46:36.664Z,10.70
2023-11-19T17:49:03.924Z,10.70
2023-11-19T17:51:31.130Z,10.70
2023-11-19T17:53:58.356Z,10.70
2023-11-19T17:56:25.838Z,10.60
2023-11-19T17:58:56.005Z,10.60
2023-11-19T18:01:23.357Z,10.60
2023-11-19T18:03:51.715Z,10.60
2023-11-19T18:06:19.140Z,10.60
2023-11-19T18:08:47.934Z,10.60
2023-11-19T18:11:15.449Z,10.50
2023-11-19T18:13:46.711Z,10.50
2023-11-19T18:16:16.232Z,10.50
2023-11-19T18:18:43.507Z,10.50
2023-11-19T18:21:11.503Z,10.60
2023-11-19T18:23:39.150Z,10.50
2023-11-19T18:26:07.705Z,10.40
2023-11-19T18:28:35.042Z,10.40
2023-11-19T18:31:02.301Z,10.30
2023-11-19T18:33:29.731Z,10.40
2023-11-19T18:35:57.070Z,10.30
2023-11-19T18:38:42.966Z,10.30
2023-11-19T18:41:10.966Z,10.20
2023-11-19T18:43:38.167Z,10.20
2023-11-19T18:46:05.771Z,10.20
2023-11-19T18:48:33.873Z,10.20
2023-11-19T18:51:02.568Z,10.20
2023-11-19T18:53:33.679Z,10.20
2023-11-19T18:56:00.977Z,10.20
2023-11-19T18:58:28.197Z,10.30
2023-11-19T19:00:55.807Z,10.30
2023-11-19T19:03:25.058Z,10.40
2023-11-19T19:05:52.647Z,10.40
2023-11-19T19:08:19.903Z,10.40
2023-11-19T19:10:47.175Z,10.40
2023-11-19T19:13:14.511Z,10.50
2023-11-19T19:15:41.718Z,10.40
2023-11-19T19:18:09.114Z,10.30
2023-11-19T19:20:36.510Z,10.30
2023-11-19T19:23:03.844Z,10.20
2023-11-19T19:25:32.065Z,10.20
2023-11-19T19:28:22.694Z,10.20
2023-11-19T19:30:49.688Z,10.10
2023-11-19T19:33:17.350Z,10.10
2023-11-19T19:35:49.001Z,10.10
2023-11-19T19:38:16.237Z,10.10
2023-11-19T19:40:43.750Z,10.00
2023-11-19T19:43:11.144Z,10.00
2023-11-19T19:45:38.309Z,10.00
2023-11-19T19:48:05.849Z,10.00
2023-11-19T19:50:35.977Z,9.90
2023-11-19T19:53:06.326Z,9.90
2023-11-19T19:55:34.129Z,9.80
2023-11-19T19:58:01.421Z,9.80
2023-11-19T20:00:28.931Z,9.70
2023-11-19T20:02:57.074Z,9.70
2023-11-19T20:05:26.046Z,9.60
2023-11-19T20:07:55.034Z,9.60
2023-11-19T20:10:22.428Z,9.60
2023-11-19T20:12:49.776Z,9.50
2023-11-19T20:15:22.400Z,9.50
2023-11-19T20:17:50.626Z,9.50
2023-11-19T20:20:19.502Z,9.60
2023-11-19T20:22:48.901Z,9.60
2023-11-19T20:25:17.321Z,9.60
2023-11-19T20:27:45.295Z,9.70
2023-11-19T20:30:12.982Z,9.70
2023-11-19T20:32:42.208Z,9.80
2023-11-19T20:35:10.453Z,9.80
2023-11-19T20:37:40.381Z,9.90
2023-11-19T20:40:10.160Z,9.90
2023-11-19T20:42:38.426Z,10.00
2023-11-19T20:45:10.303Z,10.00
2023-11-19T20:47:41.223Z,10.00
2023-11-19T20:50:09.426Z,10.10
2023-11-19T20:52:37.607Z,10.10
2023-11-19T20:55:05.625Z,10.10
2023-11-19T20:57:33.078Z,10.10
2023-11-19T21:00:01.637Z,10.10
2023-11-19T21:02:29.391Z,10.20
2023-11-19T21:04:56.620Z,10.20
2023-11-19T21:07:24.924Z,10.20
2023-11-19T21:09:53.075Z,10.30
2023-11-19T21:12:20.253Z,10.30
2023-11-19T21:14:48.025Z,10.30
2023-11-19T21:17:19.170Z,10.30
2023-11-19T21:19:48.228Z,10.30
2023-11-19T21:22:15.522Z,10.20
2023-11-19T21:24:45.451Z,10.10
2023-11-19T21:27:15.886Z,10.20
2023-11-19T21:29:43.093Z,10.10
2023-11-19T21:32:10.180Z,10.10
2023-11-19T21:34:37.980Z,10.10
2023-11-19T21:37:07.662Z,10.00
2023-11-19T21:39:34.971Z,10.10
2023-11-19T21:42:02.854Z,10.10
2023-11-19T21:44:30.088Z,10.10
2023-11-19T21:46:57.289Z,10.10
2023-11-19T21:49:24.842Z,10.10
2023-11-19T21:51:52.244Z,10.20
2023-11-19T21:54:20.145Z,10.20
2023-11-19T21:56:48.083Z,10.20
2023-11-19T21:59:16.223Z,10.30
2023-11-19T22:01:43.584Z,10.30
2023-11-19T22:04:10.976Z,10.30
2023-11-19T22:06:38.466Z,10.40
2023-11-19T22:09:06.572Z,10.50
2023-11-19T22:11:34.050Z,10.50
2023-11-19T22:14:01.889Z,10.60
2023-11-19T22:16:29.101Z,10.60
2023-11-19T22:18:56.434Z,10.60
2023-11-19T22:21:23.681Z,10.60
2023-11-19T22:23:50.836Z,10.60
2023-11-19T22:26:18.205Z,10.70
2023-11-19T22:28:45.392Z,10.60
2023-11-19T22:31:13.625Z,10.70
2023-11-19T22:33:41.731Z,10.70
2023-11-19T22:36:09.417Z,10.70
2023-11-19T22:38:36.641Z,10.70
2023-11-19T22:41:04.605Z,10.70
2023-11-19T22:43:31.711Z,10.70
2023-11-19T22:45:58.892Z,10.60
2023-11-19T22:48:26.230Z,10.60
2023-11-19T22:50:53.486Z,10.60
2023-11-19T22:53:20.814Z,10.60
2023-11-19T22:55:47.994Z,10.60
2023-11-19T22:58:15.129Z,10.60
2023-11-19T23:00:42.432Z,10.50
2023-11-19T23:03:09.954Z,10.50
2023-11-19T23:05:38.568Z,10.40
2023-11-19T23:08:08.323Z,10.40
2023-11-19T23:10:35.850Z,10.40
2023-11-19T23:13:03.065Z,10.30
2023-11-19T23:15:31.531Z,10.30
2023-11-19T23:18:01.432Z,10.20
2023-11-19T23:20:28.760Z,10.30
2023-11-19T23:22:55.982Z,10.30
2023-11-19T23:25:23.159Z,10.20
2023-11-19T23:27:50.475Z,10.20
2023-11-19T23:30:17.779Z,10.20
2023-11-19T23:32:44.935Z,10.20
2023-11-19T23:35:12.894Z,10.20
2023-11-19T23:37:42.243Z,10.30
2023-11-19T23:40:10.068Z,10.30
2023-11-19T23:42:37.307Z,10.40
2023-11-19T23:45:04.984Z,10.40
2023-11-19T23:47:32.200Z,10.40
2023-11-19T23:49:59.515Z,10.40
2023-11-19T23:52:26.685Z,10.40
2023-11-19T23:54:53.868Z,10.40
2023-11-19T23:57:21.066Z,10.40
2023-11-19T23:59:48.317Z,10.40
